PAEI METAR and TAF weather

Enter ICAO airport designator
Station Type Date Time Source
PAEI METAR 2018/12/13 19:56 UTC NOAA

PAEI 131956Z 00000KT 6SM -SN BR FEW004 BKN025 OVC039 M15/M18 A2932 RMK AO2A SNE1856SNB44 SLP945 P0000 T11471176 $


Station Type Date Time Source
PAEI Decoded METAR 2018/12/13 19:56 UTC NOAA

Fairbanks, Eielson Air Force Base, AK, United States (PAEI) 64-39N 147-06W 167M
Dec 13, 2018 - 02:56 PM EST / 2018.12.13 1956 UTC
Wind: Calm:0
Visibility: 6 mile(s):0
Sky conditions: overcast
Weather: light snow; mist
Precipitation last hour: A trace
Temperature: 5.5 F (-14.7 C)
Dew Point: 0.3 F (-17.6 C)
Relative Humidity: 78%
Pressure (altimeter): 29.32 in. Hg (992 hPa)
ob: PAEI 131956Z 00000KT 6SM -SN BR FEW004 BKN025 OVC039 M15/M18 A2932 RMK AO2A SNE1856SNB44 SLP945 P0000 T11471176
cycle: 20

Station Type Date Time Source
PAEI TAF 2018/12/13 20:14 UTC NOAA

TAF PAEI 132000Z 1320/1502 VRB06KT 6000 -SN FEW008 BKN025 620258 QNH2928INS
BECMG 1404/1406 VRB06KT 9999 NSW FEW008 BKN025 620258 QNH2931INS TXM13/1403Z TNM15/1320Z


Example: see airport list